Massadona, Colorado
Current Conditions -  °F | °C
As of 11:53 AM on Friday 28 Nov 2014 (Local Time) from KVEL Reporting Station
Clear Clear  
Wind Chill: 43°   Ceiling: Unl
Heat Index: 45°   Visibility: 10mi
Dew Point: 24°   Wind: 5mph
Humidity: 44%   Direction: NA
Pressure: 30.08"   Gusts: NA
Location:  40.362°N, 108.818°W
Report Text: KVEL 281853Z AUTO VRB04KT 10SM CLR 07/M04 A3008 RMK AO2 SLP186 T00721044
Loading
Personal Weather Stations






























Interactive Weather Map New forecast layout! Learn more

10-Day Weather Forecast

Advertisements
Track Severe Weather on mobile